Time;durP1;ratioP1;P1;durP2;ratioP2;P2;SDS_P1;SDS_P2;PMS_P1;PMS_P2;Temp;Humidity;BMP_temperature;BMP_pressure;BME280_temperature;BME280_humidity;BME280_pressure;Samples;Min_cycle;Max_cycle;Signal;HPM_P1;HPM_P2
2021/03/28 00:01:51;;;;;;;23.23;13.52;;;17.90;54.30;;;;;;5001799;28;20178;-79
2021/03/28 00:04:17;;;;;;;24.35;14.32;;;17.90;54.20;;;;;;5016921;28;20194;-81
2021/03/28 00:06:47;;;;;;;22.88;13.98;;;17.90;54.30;;;;;;5002076;28;20648;-82
2021/03/28 00:09:25;;;;;;;25.35;13.93;;;17.90;54.40;;;;;;5019127;28;20156;-80
2021/03/28 00:12:11;;;;;;;25.45;14.63;;;17.90;54.30;;;;;;5019056;28;20183;-79
2021/03/28 00:14:48;;;;;;;21.95;14.25;;;17.90;54.30;;;;;;5018519;28;20282;-79
2021/03/28 00:17:19;;;;;;;26.17;13.73;;;17.90;54.50;;;;;;5019776;28;20175;-78
2021/03/28 00:20:00;;;;;;;25.10;14.63;;;17.80;54.40;;;;;;5019326;28;20164;-79
2021/03/28 00:22:30;;;;;;;23.48;13.98;;;17.80;54.40;;;;;;5019167;28;20302;-78
2021/03/28 00:25:07;;;;;;;25.17;14.60;;;17.90;54.40;;;;;;5001977;28;20191;-79
2021/03/28 00:27:44;;;;;;;26.38;14.27;;;17.90;54.40;;;;;;5003246;28;20161;-79
2021/03/28 00:30:20;;;;;;;24.70;14.80;;;17.80;54.30;;;;;;5000400;28;20194;-80
2021/03/28 00:32:46;;;;;;;22.38;13.40;;;17.90;54.30;;;;;;5018218;28;20155;-81
2021/03/28 00:35:17;;;;;;;22.15;14.15;;;17.80;54.40;;;;;;4984470;28;20180;-80
2021/03/28 00:37:43;;;;;;;23.58;14.10;;;17.80;54.40;;;;;;4985055;28;20190;-82
2021/03/28 00:40:10;;;;;;;25.08;14.38;;;17.80;54.40;;;;;;4985066;28;20191;-82
2021/03/28 00:42:49;;;;;;;21.35;13.52;;;17.80;54.40;;;;;;5018364;28;20217;-81
2021/03/28 00:45:29;;;;;;;24.92;13.88;;;17.80;54.60;;;;;;5001317;28;20159;-79
2021/03/28 00:48:18;;;;;;;26.45;15.05;;;17.80;54.40;;;;;;4985166;28;20234;-79
2021/03/28 00:50:58;;;;;;;23.98;14.45;;;17.80;54.60;;;;;;5018472;28;20693;-78
2021/03/28 00:53:55;;;;;;;23.15;13.80;;;17.80;54.50;;;;;;4984694;28;20179;-78
2021/03/28 00:56:43;;;;;;;24.17;14.43;;;17.80;54.50;;;;;;5018064;28;20519;-79
2021/03/28 00:59:18;;;;;;;22.45;13.30;;;17.80;54.40;;;;;;5000991;28;20244;-79
2021/03/28 01:02:04;;;;;;;24.35;13.98;;;17.80;54.60;;;;;;5018986;28;20163;-79
2021/03/28 01:04:56;;;;;;;22.73;13.88;;;17.80;54.60;;;;;;5017711;28;20213;-82
2021/03/28 01:07:52;;;;;;;23.60;13.90;;;17.80;54.40;;;;;;5000389;28;20151;-83
2021/03/28 01:10:55;;;;;;;23.50;14.38;;;17.80;54.60;;;;;;5018103;28;20167;-80
2021/03/28 01:13:52;;;;;;;21.50;13.90;;;17.80;54.50;;;;;;5001034;28;20170;-79
2021/03/28 01:16:55;;;;;;;23.85;13.80;;;17.80;54.60;;;;;;5018435;28;20162;-80
2021/03/28 01:19:43;;;;;;;22.38;14.32;;;17.70;54.60;;;;;;5022744;28;20163;-78
2021/03/28 01:22:10;;;;;;;23.50;14.68;;;17.70;54.60;;;;;;5006416;28;20164;-78
2021/03/28 01:24:58;;;;;;;22.45;14.90;;;17.70;54.60;;;;;;5024065;28;20197;-78
2021/03/28 01:27:32;;;;;;;24.25;14.48;;;17.70;54.60;;;;;;5025012;28;20187;-77
2021/03/28 01:30:07;;;;;;;25.98;14.75;;;17.70;54.60;;;;;;4993776;28;20164;-79
2021/03/28 01:32:41;;;;;;;23.08;13.95;;;17.70;54.60;;;;;;5009780;28;20217;-78
2021/03/28 01:35:22;;;;;;;21.50;13.73;;;17.70;54.70;;;;;;5010390;28;20297;-78
2021/03/28 01:38:09;;;;;;;25.20;13.95;;;17.70;54.70;;;;;;5008605;28;20623;-78
2021/03/28 01:40:54;;;;;;;25.42;14.98;;;17.70;54.60;;;;;;5027250;28;20155;-78
2021/03/28 01:43:20;;;;;;;24.90;13.27;;;17.70;54.60;;;;;;4992944;28;20214;-83
2021/03/28 01:45:53;;;;;;;27.00;14.52;;;17.70;54.50;;;;;;5024443;28;20160;-80
2021/03/28 01:49:02;;;;;;;27.08;14.70;;;17.70;54.50;;;;;;5024051;28;20174;-82
2021/03/28 01:51:55;;;;;;;23.40;14.35;;;17.70;54.50;;;;;;4925893;29;20190;-79
2021/03/28 01:54:39;;;;;;;23.88;13.88;;;17.70;54.50;;;;;;4941812;29;20202;-80
2021/03/28 01:57:32;;;;;;;25.02;15.07;;;17.70;54.40;;;;;;4925180;29;20179;-78
2021/03/28 02:00:20;;;;;;;24.65;14.25;;;17.70;54.50;;;;;;4930357;29;20197;-78
2021/03/28 02:02:56;;;;;;;23.10;13.57;;;17.70;54.50;;;;;;4941342;29;20189;-77
2021/03/28 02:05:41;;;;;;;23.33;14.00;;;17.70;54.50;;;;;;4941596;29;20159;-78
2021/03/28 02:08:13;;;;;;;21.42;13.93;;;17.70;54.50;;;;;;4924999;29;20162;-79
2021/03/28 02:11:00;;;;;;;22.42;13.57;;;17.70;54.60;;;;;;4925761;29;20171;-78
2021/03/28 02:13:35;;;;;;;22.98;14.05;;;17.70;54.70;;;;;;4924968;29;20673;-80
2021/03/28 02:16:14;;;;;;;22.25;14.27;;;17.70;54.70;;;;;;4940814;29;20617;-78
2021/03/28 02:18:44;;;;;;;22.98;14.73;;;17.70;54.50;;;;;;4924662;29;20226;-80
2021/03/28 02:21:23;;;;;;;23.40;14.02;;;17.70;54.50;;;;;;4926712;29;20183;-79
2021/03/28 02:23:56;;;;;;;23.70;13.77;;;17.70;54.40;;;;;;4940079;29;20230;-78
2021/03/28 02:26:50;;;;;;;24.45;14.60;;;17.70;54.40;;;;;;4943924;29;20242;-79
2021/03/28 02:30:04;;;;;;;20.58;14.20;;;17.70;54.50;;;;;;5008548;28;20371;-80
2021/03/28 02:32:51;;;;;;;22.23;14.27;;;17.70;54.40;;;;;;4928328;29;20637;-78
2021/03/28 02:35:55;;;;;;;20.90;13.98;;;17.70;54.60;;;;;;4943174;29;20163;-77
2021/03/28 02:38:47;;;;;;;23.70;14.10;;;17.70;54.50;;;;;;4924282;29;20170;-78
2021/03/28 02:41:19;;;;;;;23.48;14.40;;;17.70;54.40;;;;;;4923968;29;20250;-81
2021/03/28 02:43:49;;;;;;;20.50;13.20;;;17.70;54.40;;;;;;4923854;29;20214;-79
2021/03/28 02:46:43;;;;;;;23.38;14.43;;;17.70;54.50;;;;;;4938968;29;20718;-80
2021/03/28 02:49:11;;;;;;;25.77;14.85;;;17.70;54.50;;;;;;4923089;29;20175;-81
2021/03/28 02:52:16;;;;;;;24.40;14.43;;;17.60;54.70;;;;;;4923286;29;20174;-80
2021/03/28 02:54:50;;;;;;;24.20;14.32;;;17.70;54.50;;;;;;4923399;29;20179;-83
2021/03/28 02:57:37;;;;;;;23.75;14.23;;;17.60;54.50;;;;;;4922977;29;20672;-81
2021/03/28 03:00:40;;;;;;;24.52;14.65;;;17.60;54.50;;;;;;4923781;29;20170;-81
2021/03/28 03:03:26;;;;;;;21.35;13.75;;;17.60;54.50;;;;;;4922887;29;20186;-81
2021/03/28 03:06:12;;;;;;;23.85;13.75;;;17.60;54.70;;;;;;4922978;29;20163;-80
2021/03/28 03:09:17;;;;;;;21.65;13.75;;;17.60;54.60;;;;;;4973295;28;20172;-79
2021/03/28 03:12:10;;;;;;;24.92;14.25;;;17.60;54.50;;;;;;5021988;28;20194;-82
2021/03/28 03:15:06;;;;;;;24.35;14.50;;;17.60;54.50;;;;;;4923088;29;20669;-80
2021/03/28 03:17:38;;;;;;;24.35;14.45;;;17.60;54.50;;;;;;4923171;29;20167;-81
2021/03/28 03:20:25;;;;;;;23.52;14.13;;;17.60;54.50;;;;;;4922700;29;20261;-80
2021/03/28 03:23:28;;;;;;;23.20;13.85;;;17.60;54.60;;;;;;4938123;29;20294;-81
2021/03/28 03:25:53;;;;;;;22.23;13.80;;;17.60;54.40;;;;;;4923256;29;20240;-81
2021/03/28 03:29:05;;;;;;;23.73;14.18;;;17.60;54.40;;;;;;4922771;29;20253;-80
2021/03/28 03:31:57;;;;;;;22.75;13.75;;;17.60;54.50;;;;;;4921950;29;20713;-80
2021/03/28 03:34:49;;;;;;;22.33;14.13;;;17.60;54.50;;;;;;4922368;29;20177;-80
2021/03/28 03:37:29;;;;;;;24.45;14.00;;;17.60;54.50;;;;;;4922141;29;20199;-80
2021/03/28 03:40:07;;;;;;;21.40;13.52;;;17.60;54.50;;;;;;4922246;29;20187;-80
2021/03/28 03:42:50;;;;;;;22.40;14.35;;;17.60;54.40;;;;;;4922110;29;20681;-79
2021/03/28 03:45:27;;;;;;;23.73;14.25;;;17.60;54.50;;;;;;4922054;29;20244;-79
2021/03/28 03:48:10;;;;;;;26.90;15.00;;;17.60;54.40;;;;;;4921699;29;20689;-83
2021/03/28 03:51:15;;;;;;;27.05;13.93;;;17.60;54.40;;;;;;4926329;28;20696;-82
2021/03/28 03:53:57;;;;;;;23.33;14.73;;;17.60;54.60;;;;;;4979317;28;20248;-79
2021/03/28 03:56:29;;;;;;;23.50;13.98;;;17.60;54.50;;;;;;4978957;28;20171;-80
2021/03/28 03:59:17;;;;;;;22.88;14.30;;;17.60;54.50;;;;;;4979599;28;20165;-81
2021/03/28 04:02:09;;;;;;;22.58;13.75;;;17.60;54.60;;;;;;4978658;28;20193;-78
2021/03/28 04:04:45;;;;;;;25.67;14.48;;;17.60;54.50;;;;;;4964538;28;20196;-79
2021/03/28 04:07:23;;;;;;;22.42;13.55;;;17.60;54.50;;;;;;4978687;28;20204;-81
2021/03/28 04:09:58;;;;;;;24.90;14.30;;;17.60;54.40;;;;;;4962384;28;20168;-83
2021/03/28 04:13:11;;;;;;;21.52;13.63;;;17.60;54.40;;;;;;4962982;28;20644;-79
2021/03/28 04:15:58;;;;;;;21.52;13.73;;;17.60;54.40;;;;;;4940287;29;20200;-78
2021/03/28 04:18:59;;;;;;;23.10;14.13;;;17.60;54.50;;;;;;4939769;29;20664;-79
2021/03/28 04:21:30;;;;;;;20.20;12.82;;;17.60;54.40;;;;;;4884376;29;20184;-79
2021/03/28 04:24:19;;;;;;;23.65;14.07;;;17.60;54.50;;;;;;4883209;29;20699;-79
2021/03/28 04:26:55;;;;;;;22.25;13.63;;;17.60;54.40;;;;;;4870886;29;20184;-80
2021/03/28 04:29:20;;;;;;;23.75;13.05;;;17.60;54.30;;;;;;4868956;29;20156;-79
2021/03/28 04:32:02;;;;;;;22.58;13.82;;;17.60;54.40;;;;;;4884562;29;20202;-79
2021/03/28 04:34:51;;;;;;;21.58;13.20;;;17.60;54.40;;;;;;4868563;29;20198;-79
2021/03/28 04:37:26;;;;;;;22.80;13.88;;;17.60;54.40;;;;;;4883998;29;20254;-80
2021/03/28 04:40:11;;;;;;;21.00;13.27;;;17.60;54.40;;;;;;4883895;29;20187;-81
2021/03/28 04:42:57;;;;;;;20.23;13.55;;;17.60;54.50;;;;;;4884596;29;20160;-83
2021/03/28 04:45:50;;;;;;;20.90;13.80;;;17.50;54.50;;;;;;4884098;29;20187;-81
2021/03/28 04:48:38;;;;;;;23.20;13.65;;;17.60;54.50;;;;;;4883946;29;20172;-81
2021/03/28 04:51:24;;;;;;;23.80;13.63;;;17.60;54.60;;;;;;4883628;29;20212;-82
2021/03/28 04:54:27;;;;;;;23.08;13.77;;;17.60;54.40;;;;;;4884182;29;20302;-81
2021/03/28 04:57:11;;;;;;;23.30;13.10;;;17.60;54.40;;;;;;4883085;29;20179;-80
2021/03/28 04:59:51;;;;;;;23.90;13.75;;;17.60;54.50;;;;;;4904915;29;20650;-82
2021/03/28 05:02:46;;;;;;;23.50;13.80;;;17.60;54.50;;;;;;4918964;29;20174;-81
2021/03/28 05:05:42;;;;;;;22.65;13.90;;;17.60;54.40;;;;;;4914937;29;20309;-80
2021/03/28 05:08:26;;;;;;;22.27;13.68;;;17.60;54.40;;;;;;4921885;29;20801;-80
2021/03/28 05:11:00;;;;;;;20.08;13.38;;;17.60;54.40;;;;;;4940509;29;20186;-79
2021/03/28 05:13:58;;;;;;;23.30;14.23;;;17.60;54.50;;;;;;4907121;29;20205;-79
2021/03/28 05:16:58;;;;;;;22.77;14.30;;;17.60;54.40;;;;;;4922897;29;20162;-80
2021/03/28 05:19:58;;;;;;;19.23;12.95;;;17.60;54.40;;;;;;4922508;29;20242;-79
2021/03/28 05:22:42;;;;;;;21.15;12.95;;;17.60;54.40;;;;;;4920034;29;20222;-79
2021/03/28 05:25:27;;;;;;;21.48;13.40;;;17.60;54.30;;;;;;4919747;29;20233;-81
2021/03/28 05:28:13;;;;;;;20.33;13.48;;;17.50;54.50;;;;;;4919512;29;20174;-81
2021/03/28 05:31:37;;;;;;;21.42;12.75;;;17.60;54.50;;;;;;4960009;28;20202;-81
2021/03/28 05:34:32;;;;;;;20.13;12.48;;;17.60;54.50;;;;;;4941000;29;20236;-78
2021/03/28 05:37:25;;;;;;;20.45;12.90;;;17.60;54.40;;;;;;4938428;29;20158;-80
2021/03/28 05:40:21;;;;;;;21.70;13.57;;;17.50;54.50;;;;;;4923764;29;20210;-83
2021/03/28 05:43:24;;;;;;;21.75;13.05;;;17.50;54.50;;;;;;4940256;29;20174;-81
2021/03/28 05:46:22;;;;;;;22.70;13.65;;;17.50;54.40;;;;;;4940243;29;20197;-78
2021/03/28 05:48:55;;;;;;;22.38;13.48;;;17.60;54.40;;;;;;4927128;29;20201;-80
2021/03/28 05:51:32;;;;;;;23.38;13.13;;;17.60;54.50;;;;;;4922965;29;20701;-80
2021/03/28 05:54:12;;;;;;;24.05;13.60;;;17.50;54.40;;;;;;4938695;29;20181;-78
2021/03/28 05:57:05;;;;;;;22.05;13.13;;;17.50;54.50;;;;;;4939595;29;20170;-81
2021/03/28 05:59:42;;;;;;;23.80;13.35;;;17.50;54.40;;;;;;4941140;29;20194;-78
2021/03/28 06:02:27;;;;;;;21.58;13.10;;;17.50;54.40;;;;;;4939514;29;20291;-82
2021/03/28 06:04:56;;;;;;;21.80;13.02;;;17.50;54.40;;;;;;4989453;28;20217;-80
2021/03/28 06:08:06;;;;;;;21.27;12.73;;;17.50;54.40;;;;;;5037974;28;20171;-79
2021/03/28 06:10:41;;;;;;;23.35;13.32;;;17.50;54.40;;;;;;5012065;28;20576;-80
2021/03/28 06:13:29;;;;;;;21.77;12.98;;;17.50;54.40;;;;;;5040526;28;20167;-80
2021/03/28 06:16:05;;;;;;;22.48;13.07;;;17.50;54.50;;;;;;5035920;28;21055;-79
2021/03/28 06:18:50;;;;;;;19.83;12.85;;;17.60;54.10;;;;;;5021263;28;20159;-78
2021/03/28 06:21:53;;;;;;;19.48;12.23;;;17.60;54.30;;;;;;5035759;28;20193;-79
2021/03/28 06:24:51;;;;;;;22.85;13.23;;;17.60;54.20;;;;;;5042370;28;20292;-78
2021/03/28 06:27:31;;;;;;;20.08;13.20;;;17.60;54.30;;;;;;5042396;28;20200;-77
2021/03/28 06:30:23;;;;;;;20.60;12.77;;;17.60;54.20;;;;;;5025330;28;20179;-79
2021/03/28 06:33:17;;;;;;;21.23;13.10;;;17.60;54.20;;;;;;5039373;28;20206;-83
2021/03/28 06:36:12;;;;;;;22.17;12.55;;;17.60;54.20;;;;;;5039509;28;20163;-79
2021/03/28 06:38:45;;;;;;;19.50;12.70;;;17.60;54.90;;;;;;5039464;28;20158;-81
2021/03/28 06:41:32;;;;;;;21.30;13.48;;;17.60;54.10;;;;;;5039131;28;20222;-81
2021/03/28 06:44:10;;;;;;;18.77;12.13;;;17.70;54.00;;;;;;5007138;28;20206;-78
2021/03/28 06:46:45;;;;;;;22.08;13.52;;;17.70;53.70;;;;;;5038094;28;20155;-80
2021/03/28 06:49:20;;;;;;;22.42;13.15;;;17.70;54.00;;;;;;5021996;28;20162;-79
2021/03/28 06:51:59;;;;;;;20.90;12.82;;;17.70;54.00;;;;;;5036865;28;20206;-79
2021/03/28 06:54:54;;;;;;;23.58;13.00;;;17.60;54.00;;;;;;5037627;28;20212;-79
2021/03/28 06:57:29;;;;;;;28.15;13.18;;;17.70;54.00;;;;;;5021904;28;20147;-78
2021/03/28 07:00:29;;;;;;;38.55;13.40;;;17.70;54.00;;;;;;5019780;28;20162;-78
2021/03/28 07:03:13;;;;;;;34.55;13.27;;;17.70;53.90;;;;;;5037803;28;20151;-79
2021/03/28 07:06:00;;;;;;;27.40;13.07;;;17.70;54.00;;;;;;5038144;28;20163;-81
2021/03/28 07:08:50;;;;;;;30.80;12.50;;;17.70;54.00;;;;;;5022204;28;20159;-80
2021/03/28 07:11:42;;;;;;;32.05;12.52;;;17.70;53.90;;;;;;5037521;28;20173;-80
2021/03/28 07:14:26;;;;;;;28.90;12.38;;;17.70;53.70;;;;;;5023844;28;20527;-79
2021/03/28 07:17:34;;;;;;;23.63;12.77;;;17.70;53.90;;;;;;5037862;28;20162;-79
2021/03/28 07:20:21;;;;;;;26.40;12.82;;;17.70;53.90;;;;;;5022151;28;20146;-82
2021/03/28 07:23:08;;;;;;;29.27;12.10;;;17.70;53.70;;;;;;5018898;28;20222;-79
2021/03/28 07:25:57;;;;;;;26.63;11.75;;;17.70;53.90;;;;;;5036151;28;20170;-77
2021/03/28 07:28:45;;;;;;;26.52;13.02;;;17.80;53.80;;;;;;4976314;28;20188;-83
2021/03/28 07:31:29;;;;;;;23.30;12.50;;;17.80;53.80;;;;;;4976050;28;20165;-78
2021/03/28 07:34:08;;;;;;;31.13;11.57;;;17.80;53.80;;;;;;4977103;28;20243;-78
2021/03/28 07:37:13;;;;;;;29.58;12.40;;;17.90;53.90;;;;;;4976189;28;20181;-77
2021/03/28 07:40:02;;;;;;;41.58;12.93;;;17.90;53.80;;;;;;4979869;28;20247;-81
2021/03/28 07:42:39;;;;;;;32.58;12.77;;;17.80;54.10;;;;;;4963580;28;20185;-79
2021/03/28 07:45:25;;;;;;;27.75;11.30;;;17.90;54.10;;;;;;4979169;28;20209;-78
2021/03/28 07:48:08;;;;;;;37.40;13.52;;;17.90;54.10;;;;;;4978954;28;20252;-80
2021/03/28 07:50:42;;;;;;;41.75;13.00;;;17.90;54.10;;;;;;4962413;28;20169;-80
2021/03/28 07:53:23;;;;;;;28.70;12.15;;;17.90;54.20;;;;;;4977190;28;20192;-79
2021/03/28 07:56:16;;;;;;;40.13;11.95;;;17.90;53.80;;;;;;4977242;28;20169;-80
2021/03/28 07:58:42;;;;;;;54.45;12.82;;;18.00;53.50;;;;;;4978993;28;20180;-80
2021/03/28 08:01:58;;;;;;;49.20;13.07;;;18.00;53.70;;;;;;4978789;28;20180;-81
2021/03/28 08:05:06;;;;;;;67.68;13.52;;;18.00;53.30;;;;;;4907297;29;20223;-79
2021/03/28 08:07:38;;;;;;;50.50;13.27;;;18.10;53.70;;;;;;4959054;29;20193;-79
2021/03/28 08:10:24;;;;;;;59.33;13.35;;;18.00;53.50;;;;;;4926067;29;20177;-78
2021/03/28 08:13:06;;;;;;;50.33;12.90;;;18.00;53.70;;;;;;4941553;29;20317;-78
2021/03/28 08:15:59;;;;;;;40.65;11.82;;;18.00;53.90;;;;;;4956776;29;20162;-79
2021/03/28 08:18:27;;;;;;;39.95;11.98;;;18.00;53.90;;;;;;4958451;29;20164;-77
2021/03/28 08:21:14;;;;;;;38.67;13.25;;;18.00;53.80;;;;;;4958509;29;20173;-78
2021/03/28 08:24:01;;;;;;;36.17;11.88;;;18.00;53.80;;;;;;4940273;29;20360;-82
2021/03/28 08:26:42;;;;;;;39.25;11.98;;;18.00;53.80;;;;;;4955848;29;20191;-79
2021/03/28 08:29:24;;;;;;;35.67;13.13;;;18.00;54.00;;;;;;4940578;29;20181;-82
2021/03/28 08:32:13;;;;;;;36.75;12.98;;;18.00;54.10;;;;;;4939662;29;20627;-83
2021/03/28 08:34:48;;;;;;;35.85;11.73;;;17.90;54.00;;;;;;4940759;29;20170;-81
2021/03/28 08:37:22;;;;;;;35.10;12.23;;;17.90;53.90;;;;;;4956625;29;20163;-79
2021/03/28 08:39:51;;;;;;;28.88;11.43;;;18.00;54.00;;;;;;4997155;28;20621;-78
2021/03/28 08:42:17;;;;;;;31.55;12.57;;;18.00;53.70;;;;;;5036023;28;20155;-80
2021/03/28 08:45:07;;;;;;;34.58;12.43;;;18.00;53.90;;;;;;5038184;28;20187;-79
2021/03/28 08:48:04;;;;;;;36.42;12.18;;;18.10;53.60;;;;;;5036352;28;20154;-81
2021/03/28 08:51:07;;;;;;;37.33;11.95;;;18.10;53.20;;;;;;5022446;28;20171;-79
2021/03/28 08:53:58;;;;;;;36.17;11.80;;;18.20;52.80;;;;;;5042480;28;20554;-80
2021/03/28 08:56:57;;;;;;;35.33;11.82;;;18.20;52.60;;;;;;5023706;28;20603;-82
2021/03/28 08:59:43;;;;;;;35.22;12.00;;;18.30;52.70;;;;;;5025324;28;20159;-79
2021/03/28 09:02:18;;;;;;;33.72;12.60;;;18.30;53.00;;;;;;4989915;28;20213;-80
2021/03/28 09:04:52;;;;;;;35.75;11.30;;;18.40;53.90;;;;;;5024640;28;20685;-83
2021/03/28 09:08:03;;;;;;;32.63;11.57;;;18.40;52.50;;;;;;5007777;28;20174;-78
2021/03/28 09:10:41;;;;;;;36.75;12.10;;;18.50;52.60;;;;;;4908648;29;20187;-79
2021/03/28 09:13:30;;;;;;;31.38;11.23;;;18.40;52.90;;;;;;4909206;29;20159;-79
2021/03/28 09:16:24;;;;;;;31.73;11.55;;;18.40;52.60;;;;;;4894265;29;20190;-79
2021/03/28 09:19:35;;;;;;;28.77;11.30;;;18.40;52.90;;;;;;4891524;29;20172;-80
2021/03/28 09:22:31;;;;;;;39.58;12.13;;;18.40;53.00;;;;;;4908083;29;20187;-78
2021/03/28 09:25:12;;;;;;;39.75;12.23;;;18.40;53.20;;;;;;4891411;29;20227;-80
2021/03/28 09:27:47;;;;;;;30.83;11.27;;;18.30;53.40;;;;;;4905806;29;20183;-81
2021/03/28 09:30:45;;;;;;;34.13;12.25;;;18.20;53.50;;;;;;4892885;29;20182;-81
2021/03/28 09:33:21;;;;;;;36.47;12.38;;;18.20;53.50;;;;;;4893050;29;20206;-82
2021/03/28 09:35:59;;;;;;;40.95;11.73;;;18.20;54.00;;;;;;4891850;29;20159;-82
2021/03/28 09:38:50;;;;;;;40.55;12.32;;;18.20;54.10;;;;;;4903793;29;20167;-79
2021/03/28 09:41:22;;;;;;;31.30;11.75;;;18.10;54.10;;;;;;4908331;29;20231;-80
2021/03/28 09:44:29;;;;;;;34.92;12.02;;;18.10;54.10;;;;;;4911326;29;20219;-79
2021/03/28 09:47:20;;;;;;;27.73;10.85;;;18.10;53.90;;;;;;4925382;28;20275;-79
2021/03/28 09:50:09;;;;;;;34.67;12.25;;;18.20;54.00;;;;;;4990745;28;20183;-80
2021/03/28 09:52:53;;;;;;;25.40;11.38;;;18.10;53.90;;;;;;4989283;28;20178;-81
2021/03/28 09:56:03;;;;;;;33.20;11.80;;;18.20;53.90;;;;;;4986696;28;20187;-80
2021/03/28 09:58:49;;;;;;;25.30;11.55;;;18.20;54.10;;;;;;4984055;28;20168;-81
2021/03/28 10:01:27;;;;;;;34.17;12.20;;;18.20;53.90;;;;;;4983142;28;20270;-80
2021/03/28 10:04:33;;;;;;;31.80;10.77;;;18.20;54.00;;;;;;4992245;28;20199;-81
2021/03/28 10:07:00;;;;;;;24.58;10.73;;;18.20;53.90;;;;;;4985615;28;20160;-79
2021/03/28 10:09:33;;;;;;;28.95;10.60;;;18.20;53.60;;;;;;4958097;28;20267;-80
2021/03/28 10:12:08;;;;;;;32.45;11.63;;;18.20;53.70;;;;;;4987167;28;20160;-84
2021/03/28 10:14:59;;;;;;;29.35;11.82;;;18.20;53.80;;;;;;4974708;28;20237;-82
2021/03/28 10:17:46;;;;;;;26.25;10.65;;;18.20;53.90;;;;;;4986439;28;20199;-79
2021/03/28 10:20:49;;;;;;;32.40;11.43;;;18.20;53.90;;;;;;4992621;28;20179;-80
2021/03/28 10:23:39;;;;;;;32.30;10.60;;;18.20;53.70;;;;;;5039702;28;20337;-79
2021/03/28 10:26:45;;;;;;;29.67;11.90;;;18.30;53.90;;;;;;5048756;28;20189;-85
2021/03/28 10:30:14;;;;;;;41.60;12.40;;;18.30;53.90;;;;;;5050578;28;20269;-80
2021/03/28 10:32:49;;;;;;;26.23;11.20;;;18.30;54.20;;;;;;5044467;28;20174;-79
2021/03/28 10:35:42;;;;;;;27.45;10.50;;;18.30;54.10;;;;;;5026536;28;20260;-79
2021/03/28 10:38:43;;;;;;;22.52;11.18;;;18.30;53.90;;;;;;5013362;28;20167;-82
2021/03/28 10:41:34;;;;;;;34.78;10.90;;;18.40;53.60;;;;;;5040308;28;22004;-82
2021/03/28 10:44:02;;;;;;;29.67;10.38;;;18.40;53.40;;;;;;5041253;28;20209;-80
2021/03/28 10:47:05;;;;;;;24.35;10.35;;;18.40;54.10;;;;;;5023794;28;20253;-83
2021/03/28 10:49:49;;;;;;;25.42;10.13;;;18.40;53.70;;;;;;5018879;28;20588;-83
2021/03/28 10:52:53;;;;;;;33.05;11.13;;;18.40;53.50;;;;;;5019382;28;20214;-82
2021/03/28 10:55:49;;;;;;;30.88;11.05;;;18.40;53.60;;;;;;4922510;29;20221;-82
2021/03/28 10:58:39;;;;;;;26.27;10.45;;;18.40;53.80;;;;;;4929364;29;20282;-81
2021/03/28 11:01:23;;;;;;;26.27;10.73;;;18.50;53.70;;;;;;4936195;29;20177;-83
2021/03/28 11:04:26;;;;;;;31.42;10.60;;;18.50;53.80;;;;;;4958357;29;20189;-82
2021/03/28 11:07:17;;;;;;;33.38;10.82;;;18.40;54.20;;;;;;4946646;29;20209;-80
2021/03/28 11:09:49;;;;;;;30.00;10.32;;;18.40;53.90;;;;;;4922451;29;20178;-82
2021/03/28 11:12:36;;;;;;;41.00;10.88;;;18.40;53.90;;;;;;4925136;29;20234;-82
2021/03/28 11:15:07;;;;;;;30.35;10.52;;;18.40;54.00;;;;;;4945422;29;20278;-81
2021/03/28 11:18:06;;;;;;;35.75;11.20;;;18.50;53.90;;;;;;4943149;29;20174;-81
2021/03/28 11:20:42;;;;;;;31.02;10.40;;;18.50;53.90;;;;;;4913913;29;20640;-81
2021/03/28 11:23:43;;;;;;;31.48;10.95;;;18.50;53.70;;;;;;4924068;29;20284;-80
2021/03/28 11:26:17;;;;;;;41.47;10.90;;;18.50;54.40;;;;;;4939021;29;20197;-82
2021/03/28 11:28:52;;;;;;;26.67;9.98;;;18.40;54.30;;;;;;4949578;29;20181;-80
2021/03/28 11:31:53;;;;;;;40.25;10.85;;;18.50;54.30;;;;;;4977233;28;20221;-81
2021/03/28 11:34:21;;;;;;;33.13;10.45;;;18.50;54.00;;;;;;5011477;28;20214;-80
2021/03/28 11:37:05;;;;;;;27.98;10.75;;;18.50;54.20;;;;;;4997671;28;20226;-81
2021/03/28 11:39:32;;;;;;;36.83;12.18;;;18.50;54.10;;;;;;5001706;28;20519;-80
2021/03/28 11:42:18;;;;;;;32.72;10.70;;;18.50;54.30;;;;;;5000786;28;20625;-80
2021/03/28 11:45:03;;;;;;;41.65;12.07;;;18.40;54.30;;;;;;5014117;28;20294;-79
2021/03/28 11:47:40;;;;;;;40.10;11.32;;;18.40;54.60;;;;;;5014492;28;20159;-81
2021/03/28 11:50:15;;;;;;;40.10;11.68;;;18.40;54.60;;;;;;5015256;28;20526;-79
2021/03/28 11:52:51;;;;;;;42.58;11.10;;;18.40;54.80;;;;;;5028049;28;20174;-80
2021/03/28 11:55:25;;;;;;;31.25;11.48;;;18.40;55.30;;;;;;5000603;28;20174;-79
2021/03/28 11:58:16;;;;;;;31.23;9.55;;;18.40;54.70;;;;;;5034532;28;20155;-80
2021/03/28 12:00:47;;;;;;;41.17;10.75;;;18.40;54.40;;;;;;5016339;28;20163;-79
2021/03/28 12:03:33;;;;;;;33.70;10.63;;;18.40;54.40;;;;;;5015876;28;20175;-80
2021/03/28 12:06:18;;;;;;;38.38;11.05;;;18.40;54.60;;;;;;5033938;28;20171;-80
2021/03/28 12:08:47;;;;;;;39.58;10.57;;;18.40;54.50;;;;;;5005104;28;20528;-81
2021/03/28 12:11:31;;;;;;;30.85;10.77;;;18.40;54.90;;;;;;5014681;28;20263;-81
2021/03/28 12:14:17;;;;;;;25.25;10.27;;;18.40;54.70;;;;;;5045036;28;20174;-81
2021/03/28 12:17:05;;;;;;;41.45;10.73;;;18.40;54.60;;;;;;5037560;28;20606;-81
2021/03/28 12:20:00;;;;;;;39.38;11.57;;;18.50;54.90;;;;;;5040182;28;20174;-81
2021/03/28 12:22:38;;;;;;;37.33;11.02;;;18.50;55.20;;;;;;5018901;28;20573;-81
2021/03/28 12:25:30;;;;;;;41.67;10.43;;;18.50;55.10;;;;;;5007938;28;20288;-81
2021/03/28 12:27:56;;;;;;;29.25;9.82;;;18.40;55.00;;;;;;4997005;28;20164;-82
2021/03/28 12:30:28;;;;;;;35.10;10.25;;;18.40;54.90;;;;;;5016085;28;20225;-82
2021/03/28 12:32:58;;;;;;;39.67;11.02;;;18.40;55.10;;;;;;5001041;28;20209;-81
2021/03/28 12:36:01;;;;;;;48.58;11.20;;;18.50;55.10;;;;;;4983038;28;20194;-82
2021/03/28 12:38:29;;;;;;;38.40;11.32;;;18.40;55.60;;;;;;5033062;28;20178;-82
2021/03/28 12:41:20;;;;;;;35.40;11.55;;;18.40;55.90;;;;;;5019623;28;20589;-81
2021/03/28 12:43:51;;;;;;;27.83;10.57;;;18.40;55.80;;;;;;5021729;28;20190;-81
2021/03/28 12:46:26;;;;;;;35.38;11.15;;;18.30;55.70;;;;;;5006509;28;20175;-82
2021/03/28 12:49:11;;;;;;;36.28;10.80;;;18.40;55.70;;;;;;5023671;28;20167;-82
2021/03/28 12:52:02;;;;;;;32.47;10.40;;;18.30;55.70;;;;;;5018371;28;20155;-82
2021/03/28 12:54:33;;;;;;;29.20;9.60;;;18.30;55.60;;;;;;5003690;28;20170;-81
2021/03/28 12:57:37;;;;;;;32.65;10.15;;;18.30;55.30;;;;;;4987000;28;20159;-79
2021/03/28 13:00:07;;;;;;;28.15;9.70;;;18.40;55.40;;;;;;5001442;28;20217;-81
2021/03/28 13:02:34;;;;;;;34.13;9.77;;;18.30;55.30;;;;;;5017645;28;20156;-80
2021/03/28 13:05:06;;;;;;;29.73;11.10;;;18.40;55.20;;;;;;5002481;28;20234;-81
2021/03/28 13:07:50;;;;;;;24.95;9.85;;;18.40;55.10;;;;;;5004851;28;20152;-83
2021/03/28 13:10:30;;;;;;;65.97;10.70;;;18.40;55.30;;;;;;5005677;28;20170;-81
2021/03/28 13:13:01;;;;;;;30.40;10.13;;;18.40;55.60;;;;;;5000771;28;20166;-81
2021/03/28 13:15:54;;;;;;;24.67;10.05;;;18.40;55.50;;;;;;5003081;28;20166;-81
2021/03/28 13:18:47;;;;;;;29.63;9.98;;;18.40;55.20;;;;;;5020160;28;20607;-81
2021/03/28 13:21:35;;;;;;;25.77;9.73;;;18.40;55.90;;;;;;5000744;28;20178;-82
2021/03/28 13:24:04;;;;;;;33.22;9.93;;;18.40;55.20;;;;;;4992062;28;20223;-83
2021/03/28 13:26:34;;;;;;;26.35;10.02;;;18.40;55.50;;;;;;4992795;28;20160;-82
2021/03/28 13:29:17;;;;;;;30.55;9.73;;;18.40;55.50;;;;;;5006921;28;20148;-81
2021/03/28 13:31:51;;;;;;;27.48;9.48;;;18.40;55.20;;;;;;5010185;28;20171;-82
2021/03/28 13:34:40;;;;;;;29.90;9.77;;;18.50;55.50;;;;;;5007530;28;20163;-79
2021/03/28 13:37:30;;;;;;;27.08;9.75;;;18.50;55.10;;;;;;5009530;28;20175;-78
2021/03/28 13:40:02;;;;;;;24.90;9.63;;;18.50;55.20;;;;;;5004759;28;20170;-81
2021/03/28 13:42:33;;;;;;;24.55;10.23;;;18.60;54.80;;;;;;5002669;28;20184;-81
2021/03/28 13:45:19;;;;;;;21.33;9.45;;;18.70;54.80;;;;;;5003826;28;20203;-81
2021/03/28 13:47:49;;;;;;;27.38;9.98;;;18.70;55.90;;;;;;5003563;28;20171;-80
2021/03/28 13:50:27;;;;;;;27.27;9.77;;;18.60;55.40;;;;;;5000965;28;20167;-80
2021/03/28 13:53:00;;;;;;;25.75;10.30;;;18.60;55.50;;;;;;5020296;28;20654;-81
2021/03/28 13:55:39;;;;;;;23.77;9.38;;;18.60;55.70;;;;;;5002879;28;20167;-81
2021/03/28 13:58:26;;;;;;;26.83;9.75;;;18.60;55.40;;;;;;4986704;28;20167;-81